Time;durP1;ratioP1;P1;durP2;ratioP2;P2;SDS_P1;SDS_P2;PMS_P1;PMS_P2;Temp;Humidity;BMP_temperature;BMP_pressure;BME280_temperature;BME280_humidity;BME280_pressure;Samples;Min_cycle;Max_cycle;Signal;HPM_P1;HPM_P2
2021/07/08 00:01:53;;;;;;;2.20;1.07;;;26.10;56.30;;;;;;5027977;28;20965;-47
2021/07/08 00:04:19;;;;;;;1.80;1.27;;;26.10;56.30;;;;;;5028848;28;20506;-46
2021/07/08 00:06:45;;;;;;;2.33;1.60;;;26.10;56.40;;;;;;5028085;28;20206;-47
2021/07/08 00:09:11;;;;;;;3.57;1.30;;;26.00;56.30;;;;;;5028270;28;20190;-48
2021/07/08 00:11:37;;;;;;;1.70;1.50;;;26.00;56.40;;;;;;5025247;28;20236;-48
2021/07/08 00:14:03;;;;;;;1.57;1.37;;;26.00;56.60;;;;;;5027625;28;20465;-46
2021/07/08 00:16:29;;;;;;;1.40;1.30;;;25.90;56.70;;;;;;5024586;28;20503;-50
2021/07/08 00:18:55;;;;;;;1.87;1.73;;;25.90;56.80;;;;;;5033331;28;20440;-47
2021/07/08 00:21:23;;;;;;;5.33;1.27;;;26.00;56.80;;;;;;5032810;28;20493;-47
2021/07/08 00:23:49;;;;;;;3.83;1.60;;;26.00;56.70;;;;;;5025325;28;20498;-51
2021/07/08 00:26:15;;;;;;;3.37;1.27;;;25.90;56.80;;;;;;5023430;28;20498;-49
2021/07/08 00:28:41;;;;;;;3.50;1.00;;;26.00;56.80;;;;;;5030392;28;20277;-50
2021/07/08 00:31:07;;;;;;;4.93;1.30;;;25.90;56.80;;;;;;5028267;28;20535;-48
2021/07/08 00:33:32;;;;;;;4.40;1.20;;;26.00;56.80;;;;;;5022935;28;20236;-50
2021/07/08 00:35:58;;;;;;;1.90;1.20;;;26.00;56.70;;;;;;5019872;28;20239;-51
2021/07/08 00:38:24;;;;;;;1.57;1.13;;;26.00;56.70;;;;;;5023781;28;20202;-48
2021/07/08 00:40:50;;;;;;;3.43;1.20;;;26.00;56.80;;;;;;5020123;28;20453;-46
2021/07/08 00:43:15;;;;;;;2.30;1.80;;;26.00;56.70;;;;;;5020353;28;20308;-46
2021/07/08 00:45:41;;;;;;;1.70;1.60;;;26.00;56.70;;;;;;5023976;28;20198;-46
2021/07/08 00:48:07;;;;;;;1.50;1.40;;;26.00;56.70;;;;;;5025562;28;20657;-45
2021/07/08 00:50:36;;;;;;;2.27;1.57;;;26.00;56.70;;;;;;5027582;28;20201;-46
2021/07/08 00:53:03;;;;;;;1.53;1.30;;;26.00;56.70;;;;;;5025464;28;20865;-46
2021/07/08 00:55:29;;;;;;;1.40;1.30;;;26.00;56.70;;;;;;5030672;28;20794;-45
2021/07/08 00:57:55;;;;;;;3.53;1.57;;;25.90;57.30;;;;;;5025466;28;20448;-47
2021/07/08 01:00:32;;;;;;;1.80;1.43;;;25.90;57.30;;;;;;5025533;28;20452;-46
2021/07/08 01:02:58;;;;;;;1.40;1.30;;;25.90;57.30;;;;;;5024851;28;20494;-46
2021/07/08 01:05:31;;;;;;;3.70;1.30;;;25.90;57.60;;;;;;5026671;28;20813;-46
2021/07/08 01:07:57;;;;;;;1.77;1.67;;;25.80;57.60;;;;;;5026681;28;20541;-46
2021/07/08 01:10:24;;;;;;;2.83;1.80;;;25.80;57.70;;;;;;5018683;28;20435;-46
2021/07/08 01:12:50;;;;;;;1.87;1.30;;;25.80;57.90;;;;;;5024153;28;20532;-47
2021/07/08 01:15:16;;;;;;;1.77;1.67;;;25.80;57.80;;;;;;5025136;28;20440;-46
2021/07/08 01:17:43;;;;;;;1.97;1.70;;;25.80;57.90;;;;;;5017504;28;20229;-46
2021/07/08 01:20:11;;;;;;;4.20;1.93;;;25.90;58.00;;;;;;5023899;28;20437;-47
2021/07/08 01:22:37;;;;;;;2.00;1.77;;;25.80;58.00;;;;;;5025157;28;20440;-45
2021/07/08 01:25:08;;;;;;;1.67;1.53;;;25.80;58.10;;;;;;5030207;28;20451;-47
2021/07/08 01:27:35;;;;;;;1.70;1.60;;;25.80;58.00;;;;;;5020147;28;20207;-50
2021/07/08 01:30:00;;;;;;;2.30;1.60;;;25.80;58.00;;;;;;5041714;28;21974;-52
2021/07/08 01:32:26;;;;;;;1.70;1.60;;;25.80;58.20;;;;;;5027512;28;20468;-48
2021/07/08 01:34:52;;;;;;;1.60;1.50;;;25.70;58.20;;;;;;5023279;28;20212;-49
2021/07/08 01:37:17;;;;;;;1.77;1.67;;;25.50;58.50;;;;;;5027786;28;20284;-50
2021/07/08 01:39:46;;;;;;;2.70;2.50;;;25.40;58.90;;;;;;5025311;28;20197;-47
2021/07/08 01:42:12;;;;;;;1.87;1.57;;;25.40;59.10;;;;;;5026859;28;20185;-49
2021/07/08 01:44:38;;;;;;;1.40;1.30;;;25.30;59.30;;;;;;5022959;28;20492;-52
2021/07/08 01:47:05;;;;;;;4.37;1.80;;;25.30;59.30;;;;;;5025272;28;20460;-48
2021/07/08 01:49:30;;;;;;;1.70;1.60;;;25.30;59.30;;;;;;5025961;28;20244;-49
2021/07/08 01:51:56;;;;;;;5.73;2.10;;;25.30;59.40;;;;;;5019985;28;20643;-47
2021/07/08 01:54:21;;;;;;;3.20;1.87;;;25.30;59.20;;;;;;5021136;28;20186;-46
2021/07/08 01:56:47;;;;;;;2.20;1.57;;;25.20;59.90;;;;;;5028625;28;20196;-50
2021/07/08 01:59:14;;;;;;;2.40;1.60;;;25.00;60.40;;;;;;5021672;28;20224;-50
2021/07/08 02:01:40;;;;;;;3.23;1.50;;;25.00;60.70;;;;;;5025241;28;20221;-46
2021/07/08 02:04:05;;;;;;;1.70;1.60;;;24.80;61.50;;;;;;5021251;28;20530;-49
2021/07/08 02:06:31;;;;;;;4.63;1.70;;;24.90;61.30;;;;;;5020521;28;20656;-52
2021/07/08 02:08:57;;;;;;;2.73;1.80;;;24.90;60.80;;;;;;5026337;28;20198;-50
2021/07/08 02:11:23;;;;;;;3.20;1.67;;;25.00;60.60;;;;;;5020295;28;20572;-46
2021/07/08 02:13:48;;;;;;;2.23;2.07;;;25.10;60.40;;;;;;5029020;28;20704;-50
2021/07/08 02:16:15;;;;;;;1.90;1.80;;;25.20;60.00;;;;;;5025223;28;20277;-49
2021/07/08 02:18:42;;;;;;;4.23;1.83;;;25.30;59.80;;;;;;5026081;28;20444;-45
2021/07/08 02:21:09;;;;;;;1.90;1.80;;;25.30;59.70;;;;;;5043277;28;20460;-47
2021/07/08 02:23:36;;;;;;;3.13;2.20;;;25.20;60.10;;;;;;5022442;28;20632;-45
2021/07/08 02:26:04;;;;;;;1.90;1.80;;;25.10;60.50;;;;;;5020876;28;20457;-52
2021/07/08 02:28:30;;;;;;;2.67;2.17;;;24.90;61.10;;;;;;5023906;28;20985;-49
2021/07/08 02:30:56;;;;;;;2.23;2.00;;;24.80;61.60;;;;;;5026634;28;20444;-50
2021/07/08 02:33:22;;;;;;;2.23;2.03;;;24.70;61.70;;;;;;5026357;28;20642;-47
2021/07/08 02:35:48;;;;;;;7.00;1.90;;;24.70;62.00;;;;;;5024718;28;20937;-50
2021/07/08 02:38:14;;;;;;;3.07;2.00;;;24.80;61.90;;;;;;5028513;28;20557;-50
2021/07/08 02:40:40;;;;;;;7.53;3.17;;;24.90;61.80;;;;;;5017576;28;20790;-46
2021/07/08 02:43:07;;;;;;;4.53;1.90;;;24.90;60.80;;;;;;5021364;28;20311;-47
2021/07/08 02:45:37;;;;;;;2.20;2.00;;;24.90;60.70;;;;;;5022872;28;20451;-51
2021/07/08 02:48:04;;;;;;;2.10;2.00;;;25.00;60.90;;;;;;5025092;28;20446;-47
2021/07/08 02:50:31;;;;;;;2.00;1.80;;;25.00;60.90;;;;;;5027466;28;20927;-48
2021/07/08 02:52:57;;;;;;;2.23;1.60;;;25.00;61.10;;;;;;5021189;28;20451;-45
2021/07/08 02:55:23;;;;;;;1.70;1.60;;;24.90;61.10;;;;;;5025836;28;20447;-46
2021/07/08 02:57:49;;;;;;;2.30;1.50;;;25.00;60.90;;;;;;5023699;28;20783;-49
2021/07/08 03:00:21;;;;;;;2.37;1.83;;;25.00;60.70;;;;;;5014209;28;20540;-47
2021/07/08 03:02:46;;;;;;;1.50;1.40;;;25.10;60.70;;;;;;5027531;28;20605;-48
2021/07/08 03:05:13;;;;;;;2.83;2.03;;;25.10;60.40;;;;;;5026674;28;20531;-51
2021/07/08 03:07:39;;;;;;;2.83;2.00;;;25.10;60.10;;;;;;5021606;28;20292;-48
2021/07/08 03:10:07;;;;;;;2.90;2.07;;;25.10;60.30;;;;;;5021566;28;20443;-49
2021/07/08 03:12:33;;;;;;;2.70;1.20;;;25.10;60.40;;;;;;5026379;28;20589;-52
2021/07/08 03:14:58;;;;;;;8.37;2.00;;;25.00;60.70;;;;;;5028401;28;21261;-45
2021/07/08 03:17:24;;;;;;;2.30;2.10;;;25.00;60.40;;;;;;5030338;28;20286;-49
2021/07/08 03:19:50;;;;;;;5.23;2.00;;;25.00;60.40;;;;;;5024411;28;20198;-49
2021/07/08 03:22:15;;;;;;;2.37;2.17;;;24.90;60.60;;;;;;5032192;28;20249;-49
2021/07/08 03:24:41;;;;;;;2.47;2.30;;;24.80;60.80;;;;;;5028260;28;20256;-48
2021/07/08 03:27:07;;;;;;;2.17;1.70;;;24.70;61.30;;;;;;5020983;28;20699;-49
2021/07/08 03:29:33;;;;;;;2.20;2.10;;;24.60;61.80;;;;;;5026631;28;20440;-51
2021/07/08 03:31:59;;;;;;;2.00;1.80;;;24.70;61.90;;;;;;5032195;28;20680;-47
2021/07/08 03:34:25;;;;;;;2.00;1.90;;;24.70;61.70;;;;;;5026440;28;20444;-45
2021/07/08 03:36:50;;;;;;;6.00;1.90;;;24.80;61.50;;;;;;5025671;28;20243;-45
2021/07/08 03:39:16;;;;;;;1.90;1.80;;;24.80;61.20;;;;;;5033145;28;20189;-48
2021/07/08 03:41:42;;;;;;;4.53;2.20;;;24.80;61.30;;;;;;5023154;28;20547;-48
2021/07/08 03:44:07;;;;;;;2.93;2.27;;;24.80;61.20;;;;;;5027286;28;20221;-45
2021/07/08 03:46:33;;;;;;;2.53;2.33;;;24.80;61.30;;;;;;5025406;28;20193;-46
2021/07/08 03:48:58;;;;;;;2.40;2.20;;;24.80;61.30;;;;;;5029876;28;20190;-46
2021/07/08 03:51:24;;;;;;;2.27;1.53;;;24.80;61.50;;;;;;5026863;28;20193;-46
2021/07/08 03:53:50;;;;;;;3.83;2.00;;;24.80;61.40;;;;;;5027950;28;20208;-47
2021/07/08 03:56:15;;;;;;;2.80;2.47;;;24.80;61.30;;;;;;5015403;28;20239;-46
2021/07/08 03:58:41;;;;;;;2.30;2.10;;;24.80;61.10;;;;;;5028451;28;20266;-47
2021/07/08 04:01:07;;;;;;;2.50;1.90;;;24.70;61.50;;;;;;5024097;28;20201;-47
2021/07/08 04:03:33;;;;;;;4.17;2.30;;;24.70;61.60;;;;;;5031504;28;20526;-47
2021/07/08 04:05:59;;;;;;;2.07;1.83;;;24.60;61.70;;;;;;5028257;28;20796;-48
2021/07/08 04:08:25;;;;;;;2.83;2.37;;;24.60;62.00;;;;;;5024831;28;20448;-51
2021/07/08 04:10:51;;;;;;;2.70;2.10;;;24.60;62.00;;;;;;5028871;28;20331;-52
2021/07/08 04:13:19;;;;;;;5.90;2.77;;;24.60;62.10;;;;;;5019179;28;20194;-51
2021/07/08 04:15:46;;;;;;;4.30;2.00;;;24.50;62.70;;;;;;5027005;28;20196;-51
2021/07/08 04:18:14;;;;;;;2.60;1.90;;;24.20;63.30;;;;;;5028942;28;20808;-46
2021/07/08 04:20:40;;;;;;;2.27;2.00;;;24.10;64.00;;;;;;5024854;28;20440;-48
2021/07/08 04:23:07;;;;;;;2.43;2.23;;;24.10;63.80;;;;;;5026065;28;20987;-48
2021/07/08 04:25:34;;;;;;;3.03;2.83;;;24.10;63.70;;;;;;5030829;28;20442;-50
2021/07/08 04:28:01;;;;;;;2.57;2.37;;;24.10;63.70;;;;;;5026733;28;20444;-48
2021/07/08 04:30:27;;;;;;;3.13;2.67;;;23.80;64.20;;;;;;5026572;28;20448;-50
2021/07/08 04:32:54;;;;;;;3.17;2.63;;;23.60;65.60;;;;;;5027611;28;20444;-45
2021/07/08 04:35:24;;;;;;;4.60;2.87;;;23.60;65.80;;;;;;5031145;28;20456;-51
2021/07/08 04:37:50;;;;;;;4.00;2.40;;;23.70;65.70;;;;;;5018614;28;20476;-51
2021/07/08 04:40:18;;;;;;;5.97;2.90;;;23.70;65.30;;;;;;5023458;28;20522;-47
2021/07/08 04:42:46;;;;;;;4.77;2.60;;;23.70;65.00;;;;;;5028227;28;20220;-51
2021/07/08 04:45:11;;;;;;;3.20;2.73;;;23.50;65.80;;;;;;5019457;28;20456;-51
2021/07/08 04:47:41;;;;;;;4.00;2.70;;;23.30;66.50;;;;;;5027463;28;20927;-50
2021/07/08 04:50:10;;;;;;;4.20;2.90;;;22.80;68.50;;;;;;5022929;28;20197;-50
2021/07/08 04:52:37;;;;;;;5.07;2.90;;;22.70;69.30;;;;;;5022361;28;20444;-51
2021/07/08 04:55:06;;;;;;;3.00;2.80;;;22.80;69.30;;;;;;5029462;28;20906;-50
2021/07/08 04:57:32;;;;;;;3.40;3.20;;;22.90;68.70;;;;;;5021787;28;20443;-50
2021/07/08 04:59:58;;;;;;;5.93;2.93;;;22.90;68.30;;;;;;5023713;28;20440;-51
2021/07/08 05:02:24;;;;;;;4.33;3.03;;;22.90;68.30;;;;;;5028217;28;20197;-50
2021/07/08 05:04:50;;;;;;;2.63;2.50;;;22.80;68.20;;;;;;5028551;28;20700;-50
2021/07/08 05:07:16;;;;;;;3.47;3.17;;;22.80;69.00;;;;;;5020433;28;20479;-52
2021/07/08 05:09:42;;;;;;;2.77;2.57;;;22.60;69.50;;;;;;5023989;28;20440;-52
2021/07/08 05:12:08;;;;;;;2.87;2.50;;;22.60;69.70;;;;;;5022676;28;21226;-46
2021/07/08 05:14:34;;;;;;;6.30;2.63;;;22.30;70.50;;;;;;5024979;28;20471;-50
2021/07/08 05:17:03;;;;;;;3.60;3.30;;;22.20;71.00;;;;;;5023195;28;20491;-49
2021/07/08 05:19:30;;;;;;;7.30;3.30;;;22.10;71.00;;;;;;5028452;28;20444;-51
2021/07/08 05:21:57;;;;;;;4.30;3.10;;;22.00;70.80;;;;;;5023901;28;20850;-49
2021/07/08 05:24:25;;;;;;;3.13;2.83;;;22.00;72.20;;;;;;5023702;28;20570;-49
2021/07/08 05:26:51;;;;;;;5.13;2.00;;;22.10;71.90;;;;;;5019041;28;20590;-47
2021/07/08 05:29:17;;;;;;;2.63;2.43;;;22.60;70.40;;;;;;5017625;28;20559;-51
2021/07/08 05:31:43;;;;;;;3.30;2.43;;;23.00;68.80;;;;;;5022227;28;20444;-49
2021/07/08 05:34:09;;;;;;;9.47;2.93;;;23.20;67.50;;;;;;5020629;28;20452;-50
2021/07/08 05:36:35;;;;;;;2.37;1.87;;;23.60;66.70;;;;;;5023951;28;20435;-49
2021/07/08 05:39:02;;;;;;;5.23;2.97;;;23.90;65.60;;;;;;5017331;28;20445;-51
2021/07/08 05:41:27;;;;;;;3.13;2.93;;;24.10;64.70;;;;;;5024064;28;20201;-49
2021/07/08 05:43:53;;;;;;;3.53;2.60;;;24.10;64.10;;;;;;5025837;28;20514;-51
2021/07/08 05:46:20;;;;;;;3.30;2.80;;;23.90;64.90;;;;;;5027358;28;20560;-51
2021/07/08 05:48:45;;;;;;;3.70;3.40;;;23.80;65.20;;;;;;5026448;28;20275;-48
2021/07/08 05:51:12;;;;;;;4.60;2.97;;;23.90;65.60;;;;;;5020666;28;20492;-48
2021/07/08 05:53:38;;;;;;;3.47;3.17;;;24.10;65.00;;;;;;5024819;28;20200;-51
2021/07/08 05:56:04;;;;;;;6.70;3.33;;;24.20;64.40;;;;;;5020809;28;20912;-47
2021/07/08 05:58:30;;;;;;;3.37;3.17;;;24.20;63.80;;;;;;5027655;28;20196;-51
2021/07/08 06:00:56;;;;;;;5.20;3.00;;;24.30;63.80;;;;;;5026248;28;20439;-49
2021/07/08 06:03:22;;;;;;;5.60;3.53;;;24.40;63.30;;;;;;5023286;28;20488;-49
2021/07/08 06:05:48;;;;;;;6.93;2.50;;;24.50;62.90;;;;;;5021411;28;20297;-48
2021/07/08 06:08:14;;;;;;;2.50;2.30;;;24.70;62.30;;;;;;5019908;28;20198;-48
2021/07/08 06:10:41;;;;;;;4.80;3.30;;;24.80;62.50;;;;;;5025411;28;20519;-48
2021/07/08 06:13:07;;;;;;;6.70;3.20;;;25.00;61.40;;;;;;5025506;28;20351;-47
2021/07/08 06:15:33;;;;;;;3.53;3.03;;;25.10;61.00;;;;;;5023039;28;20440;-49
2021/07/08 06:17:58;;;;;;;2.90;2.70;;;25.20;60.60;;;;;;5018495;28;20605;-50
2021/07/08 06:20:26;;;;;;;4.20;3.90;;;25.20;60.30;;;;;;5021240;28;20217;-48
2021/07/08 06:22:51;;;;;;;4.50;4.10;;;25.30;60.20;;;;;;5027563;28;20212;-51
2021/07/08 06:25:17;;;;;;;5.43;3.63;;;25.20;60.40;;;;;;5024604;28;20440;-52
2021/07/08 06:27:43;;;;;;;5.57;3.13;;;25.20;60.90;;;;;;5022382;28;20688;-51
2021/07/08 06:30:09;;;;;;;4.50;4.10;;;25.10;61.30;;;;;;5022762;28;20190;-45
2021/07/08 06:32:35;;;;;;;8.50;4.40;;;25.10;61.40;;;;;;5026026;28;20236;-49
2021/07/08 06:35:02;;;;;;;5.23;3.97;;;25.10;61.40;;;;;;5018519;28;20464;-47
2021/07/08 06:37:28;;;;;;;4.40;4.00;;;25.10;61.50;;;;;;5021202;28;20201;-49
2021/07/08 06:39:54;;;;;;;4.73;3.73;;;25.20;62.30;;;;;;5028903;28;20505;-50
2021/07/08 06:42:20;;;;;;;4.80;3.90;;;25.20;61.60;;;;;;5028578;28;20881;-50
2021/07/08 06:44:46;;;;;;;5.00;4.20;;;25.30;61.50;;;;;;5026417;28;21061;-51
2021/07/08 06:47:17;;;;;;;6.30;4.63;;;25.30;61.40;;;;;;5023585;28;20511;-48
2021/07/08 06:49:44;;;;;;;4.60;3.50;;;25.30;61.50;;;;;;5027893;28;20530;-47
2021/07/08 06:52:10;;;;;;;4.27;3.87;;;25.20;61.70;;;;;;5022363;28;20437;-48
2021/07/08 06:54:36;;;;;;;4.77;3.60;;;25.10;61.90;;;;;;5016805;28;20826;-48
2021/07/08 06:57:01;;;;;;;4.27;3.87;;;25.00;62.40;;;;;;5020195;28;20205;-46
2021/07/08 06:59:27;;;;;;;3.90;3.20;;;25.00;62.70;;;;;;5026962;28;20532;-45
2021/07/08 07:01:52;;;;;;;4.50;3.10;;;24.80;63.10;;;;;;5025722;28;20268;-46
2021/07/08 07:04:18;;;;;;;5.80;3.43;;;24.70;63.20;;;;;;5027320;28;20626;-48
2021/07/08 07:06:44;;;;;;;3.97;3.67;;;24.80;62.90;;;;;;5028424;28;20225;-46
2021/07/08 07:09:09;;;;;;;4.53;4.00;;;24.80;62.40;;;;;;5024236;28;20663;-46
2021/07/08 07:11:35;;;;;;;5.40;3.10;;;24.80;62.20;;;;;;5030397;28;20255;-47
2021/07/08 07:14:01;;;;;;;3.27;2.97;;;24.90;61.80;;;;;;5027510;28;20639;-48
2021/07/08 07:16:26;;;;;;;4.40;4.00;;;25.00;61.50;;;;;;5026483;28;20241;-45
2021/07/08 07:18:52;;;;;;;4.80;3.40;;;25.20;61.20;;;;;;5018283;28;20258;-46
2021/07/08 07:21:17;;;;;;;4.03;3.73;;;25.20;60.90;;;;;;5030133;28;20189;-48
2021/07/08 07:23:43;;;;;;;3.90;3.60;;;25.20;60.70;;;;;;5029085;28;20221;-46
2021/07/08 07:26:10;;;;;;;4.57;4.17;;;25.30;61.30;;;;;;5026160;28;20550;-47
2021/07/08 07:28:36;;;;;;;4.53;4.13;;;25.20;61.60;;;;;;5030885;28;20225;-46
2021/07/08 07:31:03;;;;;;;5.53;3.73;;;25.20;61.80;;;;;;5028580;28;20982;-45
2021/07/08 07:33:28;;;;;;;3.87;3.57;;;25.30;61.50;;;;;;5029334;28;20432;-46
2021/07/08 07:35:54;;;;;;;4.20;3.80;;;25.30;61.30;;;;;;5027395;28;20786;-45
2021/07/08 07:38:21;;;;;;;3.47;3.27;;;25.10;61.30;;;;;;5029418;28;20198;-46
2021/07/08 07:40:46;;;;;;;3.20;3.00;;;24.90;61.60;;;;;;5020968;28;20194;-46
2021/07/08 07:43:13;;;;;;;4.10;3.70;;;24.80;62.40;;;;;;5025441;28;20488;-47
2021/07/08 07:45:40;;;;;;;5.33;3.67;;;24.80;62.50;;;;;;5021714;28;20561;-46
2021/07/08 07:48:07;;;;;;;4.87;3.87;;;25.00;62.40;;;;;;5022070;28;20521;-47
2021/07/08 07:50:33;;;;;;;3.60;3.40;;;24.90;62.10;;;;;;5033340;28;20908;-46
2021/07/08 07:52:59;;;;;;;3.40;3.13;;;25.00;62.20;;;;;;5030270;28;20443;-46
2021/07/08 07:55:28;;;;;;;4.90;3.53;;;25.10;62.10;;;;;;5029558;28;20836;-49
2021/07/08 07:57:58;;;;;;;4.33;3.90;;;25.20;61.50;;;;;;5030488;28;20847;-46
2021/07/08 08:00:25;;;;;;;3.20;3.00;;;25.30;61.30;;;;;;5031931;28;20448;-46
2021/07/08 08:02:52;;;;;;;5.00;3.13;;;25.40;61.30;;;;;;5031822;28;20436;-44
2021/07/08 08:10:28;;;;;;;3.47;3.20;;;25.30;61.60;;;;;;5032651;28;20818;-45
2021/07/08 08:12:54;;;;;;;4.47;3.20;;;25.40;61.80;;;;;;5025145;28;20795;-45
2021/07/08 08:15:20;;;;;;;3.70;3.50;;;25.00;62.50;;;;;;5030189;28;20444;-46
2021/07/08 08:17:47;;;;;;;3.30;2.93;;;25.00;62.90;;;;;;5030147;28;20877;-47
2021/07/08 08:20:16;;;;;;;3.33;3.03;;;25.00;62.70;;;;;;5029065;28;20198;-45
2021/07/08 08:22:42;;;;;;;4.13;3.80;;;25.10;62.40;;;;;;5031272;28;20459;-48
2021/07/08 08:25:10;;;;;;;4.00;3.27;;;25.20;62.00;;;;;;5031770;28;20446;-45
2021/07/08 08:27:37;;;;;;;6.70;4.20;;;25.10;62.70;;;;;;5029708;28;20443;-48
2021/07/08 08:30:04;;;;;;;3.43;3.13;;;25.10;62.50;;;;;;5022512;28;20451;-45
2021/07/08 08:32:30;;;;;;;3.83;3.53;;;25.10;62.40;;;;;;5027315;28;20442;-47
2021/07/08 08:34:55;;;;;;;4.30;3.70;;;25.30;62.00;;;;;;5029325;28;20522;-47
2021/07/08 08:37:21;;;;;;;3.77;2.87;;;25.40;61.90;;;;;;5032038;28;20193;-47
2021/07/08 08:39:47;;;;;;;5.40;3.80;;;25.50;61.50;;;;;;5028693;28;20565;-46
2021/07/08 08:42:13;;;;;;;3.53;3.23;;;25.40;61.20;;;;;;5026885;28;20612;-46
2021/07/08 08:44:38;;;;;;;4.70;3.50;;;25.00;62.80;;;;;;5032560;28;20677;-47
2021/07/08 08:47:09;;;;;;;4.27;3.37;;;25.00;63.10;;;;;;5029830;28;20194;-46
2021/07/08 08:49:42;;;;;;;2.67;2.47;;;25.20;62.60;;;;;;5030904;28;20189;-49
2021/07/08 08:52:10;;;;;;;2.60;2.50;;;25.40;62.20;;;;;;5030823;28;20443;-45
2021/07/08 08:54:36;;;;;;;4.17;3.40;;;25.60;61.50;;;;;;5020069;28;20455;-45
2021/07/08 08:57:03;;;;;;;4.57;4.07;;;25.80;60.70;;;;;;5028058;28;20444;-49
2021/07/08 08:59:29;;;;;;;5.50;2.83;;;25.80;60.40;;;;;;5017955;28;20528;-45
2021/07/08 09:02:17;;;;;;;3.10;2.80;;;25.70;60.00;;;;;;5028546;28;20435;-45
2021/07/08 09:04:44;;;;;;;2.87;2.67;;;25.60;61.00;;;;;;5018160;28;20487;-49
2021/07/08 09:07:25;;;;;;;3.30;3.10;;;25.90;60.80;;;;;;5021162;28;20432;-45
2021/07/08 09:09:56;;;;;;;3.40;3.10;;;26.10;59.70;;;;;;5023680;28;20448;-46
2021/07/08 09:12:24;;;;;;;3.30;3.00;;;26.10;59.20;;;;;;5019203;28;20449;-45
2021/07/08 09:14:51;;;;;;;4.17;3.03;;;26.30;59.00;;;;;;5025039;28;20441;-46
2021/07/08 09:17:22;;;;;;;4.97;4.47;;;26.00;59.10;;;;;;5026216;28;20470;-49
2021/07/08 09:20:06;;;;;;;4.40;4.10;;;25.70;58.80;;;;;;5020633;28;20444;-46
2021/07/08 09:22:32;;;;;;;5.17;3.80;;;25.90;59.30;;;;;;5018209;28;20448;-45
2021/07/08 09:24:59;;;;;;;3.57;3.37;;;26.10;59.50;;;;;;5023584;28;20497;-46
2021/07/08 09:27:27;;;;;;;4.07;3.70;;;26.30;59.10;;;;;;5026129;28;20866;-50
2021/07/08 09:29:54;;;;;;;4.70;4.30;;;26.50;58.60;;;;;;5020807;28;20446;-46
2021/07/08 09:32:23;;;;;;;4.97;4.20;;;26.60;58.60;;;;;;5028728;28;20931;-49
2021/07/08 09:34:58;;;;;;;3.87;3.57;;;26.50;57.90;;;;;;5022374;28;20469;-46
2021/07/08 09:37:24;;;;;;;4.40;4.10;;;26.40;58.50;;;;;;5031085;28;20443;-47
2021/07/08 09:39:52;;;;;;;4.30;3.57;;;26.40;58.20;;;;;;5027439;28;21148;-45
2021/07/08 09:42:31;;;;;;;4.60;4.20;;;26.40;58.50;;;;;;5026263;28;20864;-45
2021/07/08 09:45:09;;;;;;;4.60;4.00;;;26.50;58.20;;;;;;5016709;28;20476;-50
2021/07/08 09:47:37;;;;;;;4.70;4.30;;;26.70;57.70;;;;;;5022979;28;20558;-46
2021/07/08 09:50:04;;;;;;;5.37;3.77;;;26.80;57.50;;;;;;5018450;28;20436;-47
2021/07/08 09:52:30;;;;;;;3.97;3.77;;;26.80;57.20;;;;;;5019948;28;20923;-47
2021/07/08 09:57:30;;;;;;;4.80;4.40;;;27.10;57.50;;;;;;5022088;28;20443;-46
2021/07/08 09:59:56;;;;;;;5.70;5.07;;;27.20;57.50;;;;;;5030801;28;20235;-47
2021/07/08 10:02:30;;;;;;;6.07;5.00;;;27.20;57.50;;;;;;5024523;28;20480;-46
2021/07/08 10:04:56;;;;;;;5.33;4.83;;;27.30;57.30;;;;;;5021063;28;20228;-48
2021/07/08 10:07:23;;;;;;;7.17;6.47;;;27.30;57.10;;;;;;5032077;28;20428;-47
2021/07/08 10:09:49;;;;;;;6.67;6.07;;;27.40;56.90;;;;;;5026530;28;20543;-48
2021/07/08 10:12:14;;;;;;;5.60;5.13;;;27.50;56.40;;;;;;5020092;28;20523;-51
2021/07/08 10:14:43;;;;;;;23.27;13.30;;;27.60;56.10;;;;;;5019285;28;20198;-49
2021/07/08 10:17:11;;;;;;;7.60;5.63;;;27.60;56.10;;;;;;5025326;28;20636;-45
2021/07/08 10:19:38;;;;;;;11.80;6.70;;;27.70;55.60;;;;;;5028239;28;20436;-47
2021/07/08 10:22:04;;;;;;;10.07;5.20;;;27.70;55.70;;;;;;5023930;28;20440;-45
2021/07/08 10:24:30;;;;;;;10.57;6.90;;;27.70;55.40;;;;;;5017830;28;20523;-48
2021/07/08 10:26:57;;;;;;;6.17;5.57;;;27.70;55.50;;;;;;5027474;28;20431;-46
2021/07/08 10:29:23;;;;;;;10.40;6.47;;;27.80;56.10;;;;;;5019288;28;20454;-49
2021/07/08 10:31:51;;;;;;;4.30;3.90;;;27.70;56.00;;;;;;5030936;28;20447;-46
2021/07/08 10:34:18;;;;;;;4.93;4.13;;;27.70;55.70;;;;;;5024223;28;20448;-49
2021/07/08 10:36:46;;;;;;;8.57;4.00;;;27.80;55.30;;;;;;5026886;28;20539;-47
2021/07/08 10:39:20;;;;;;;5.90;5.10;;;27.90;54.60;;;;;;5028877;28;20447;-46
2021/07/08 10:41:54;;;;;;;4.17;3.70;;;28.00;55.20;;;;;;5015887;28;20436;-46
2021/07/08 10:44:43;;;;;;;4.33;4.07;;;28.00;56.20;;;;;;5025204;28;20538;-48
2021/07/08 10:47:30;;;;;;;7.70;6.07;;;28.10;55.40;;;;;;5013550;28;20952;-46
2021/07/08 10:49:56;;;;;;;7.43;3.97;;;28.10;54.60;;;;;;5026034;28;20442;-48
2021/07/08 10:52:43;;;;;;;5.73;4.63;;;28.10;53.40;;;;;;5020363;28;20437;-46
2021/07/08 10:55:09;;;;;;;5.07;3.53;;;28.10;53.80;;;;;;5020234;28;20543;-46
2021/07/08 10:57:40;;;;;;;4.50;3.80;;;28.00;53.10;;;;;;5024953;28;20436;-46
2021/07/08 11:00:08;;;;;;;3.50;3.20;;;28.00;53.10;;;;;;5013806;28;20444;-51
2021/07/08 11:02:50;;;;;;;6.47;5.00;;;28.10;53.10;;;;;;5029939;28;20448;-46
2021/07/08 11:05:53;;;;;;;5.30;4.13;;;28.30;52.90;;;;;;5027482;28;20447;-46
2021/07/08 11:08:44;;;;;;;3.50;3.20;;;28.30;52.90;;;;;;5017836;28;20441;-46
2021/07/08 11:11:10;;;;;;;3.60;3.40;;;28.40;52.50;;;;;;5029386;28;20855;-47
2021/07/08 11:13:35;;;;;;;3.57;2.77;;;28.40;51.80;;;;;;5020943;28;20436;-47
2021/07/08 11:16:01;;;;;;;3.87;3.40;;;28.50;52.30;;;;;;5019306;28;20256;-46
2021/07/08 11:18:31;;;;;;;4.57;2.83;;;28.50;52.20;;;;;;5025824;28;20665;-46
2021/07/08 11:20:57;;;;;;;3.20;3.00;;;28.50;52.10;;;;;;5021129;28;20217;-47
2021/07/08 11:23:40;;;;;;;3.07;2.77;;;28.50;51.70;;;;;;5029091;28;20483;-47
2021/07/08 11:26:08;;;;;;;5.77;3.83;;;28.50;52.00;;;;;;5029834;28;20452;-46
2021/07/08 11:28:34;;;;;;;3.80;2.60;;;28.50;52.10;;;;;;5028438;28;20441;-48
2021/07/08 11:31:05;;;;;;;3.07;2.77;;;28.50;51.20;;;;;;5022151;28;20445;-45
2021/07/08 11:33:34;;;;;;;2.80;2.50;;;28.30;51.40;;;;;;5029205;28;20201;-46
2021/07/08 11:36:19;;;;;;;4.00;3.00;;;27.80;52.20;;;;;;5026608;28;20434;-47
2021/07/08 11:38:46;;;;;;;4.17;2.83;;;27.90;53.40;;;;;;5026903;28;20491;-45
2021/07/08 11:41:14;;;;;;;5.47;2.80;;;28.00;53.50;;;;;;5025959;28;20939;-49
2021/07/08 11:43:48;;;;;;;4.50;3.23;;;28.20;53.40;;;;;;5022768;28;20873;-47
2021/07/08 11:46:14;;;;;;;3.07;2.87;;;28.30;53.10;;;;;;5028975;28;20425;-47
2021/07/08 11:48:45;;;;;;;3.80;3.50;;;28.40;53.00;;;;;;5021012;28;20539;-48
2021/07/08 11:51:21;;;;;;;6.30;3.00;;;28.50;52.70;;;;;;5033596;28;20505;-49
2021/07/08 11:53:48;;;;;;;2.93;2.73;;;28.50;52.90;;;;;;5025265;28;20479;-47
2021/07/08 11:56:19;;;;;;;2.13;2.03;;;28.60;52.90;;;;;;5023934;28;20478;-45
2021/07/08 11:58:44;;;;;;;2.93;2.73;;;28.70;52.50;;;;;;5024205;28;20460;-48
2021/07/08 12:01:12;;;;;;;5.03;2.57;;;28.70;52.40;;;;;;5025786;28;20436;-45
2021/07/08 12:03:47;;;;;;;2.53;2.43;;;28.80;51.90;;;;;;5027763;28;20232;-48
2021/07/08 12:06:24;;;;;;;2.73;2.53;;;28.80;52.10;;;;;;5029732;28;20432;-46
2021/07/08 12:08:57;;;;;;;3.13;2.90;;;28.90;51.50;;;;;;5026229;28;20455;-46
2021/07/08 12:11:51;;;;;;;3.00;2.80;;;28.90;51.40;;;;;;5032271;28;20523;-49
2021/07/08 12:14:16;;;;;;;3.33;2.47;;;28.90;51.60;;;;;;5020160;28;20524;-46
2021/07/08 12:16:48;;;;;;;2.47;2.27;;;29.00;51.50;;;;;;5027180;28;20605;-46
2021/07/08 12:19:29;;;;;;;2.50;2.30;;;29.00;50.30;;;;;;5028521;28;20193;-47
2021/07/08 12:22:02;;;;;;;4.10;2.40;;;29.00;49.70;;;;;;5023869;28;20475;-49
2021/07/08 12:24:27;;;;;;;2.97;2.77;;;28.90;50.00;;;;;;5018440;28;20578;-47
2021/07/08 12:26:58;;;;;;;3.10;2.90;;;29.00;50.10;;;;;;5030715;28;20523;-49
2021/07/08 12:29:29;;;;;;;2.60;2.50;;;29.00;49.80;;;;;;5030009;28;20189;-50
2021/07/08 12:32:10;;;;;;;2.57;2.20;;;28.80;49.80;;;;;;5025910;28;20955;-51
2021/07/08 12:35:14;;;;;;;2.60;2.40;;;28.80;49.90;;;;;;5030525;28;20501;-50
2021/07/08 12:37:39;;;;;;;2.60;2.50;;;28.80;49.90;;;;;;5027476;28;20440;-48
2021/07/08 12:40:14;;;;;;;2.73;2.53;;;28.80;49.60;;;;;;5025424;28;20440;-52
2021/07/08 12:42:45;;;;;;;2.93;2.60;;;28.80;51.20;;;;;;5032382;28;20494;-49
2021/07/08 12:45:19;;;;;;;3.10;2.53;;;28.60;50.80;;;;;;5032541;28;20578;-52
2021/07/08 12:47:52;;;;;;;2.80;2.50;;;28.60;50.80;;;;;;5026608;28;20452;-50
2021/07/08 12:50:33;;;;;;;2.80;2.50;;;28.60;50.80;;;;;;5019827;28;20448;-51
2021/07/08 12:53:02;;;;;;;2.40;1.50;;;28.60;51.30;;;;;;5017041;28;20535;-52
2021/07/08 12:55:34;;;;;;;2.23;2.03;;;28.60;52.50;;;;;;5018403;28;20889;-49
2021/07/08 12:58:04;;;;;;;3.27;1.80;;;28.50;53.10;;;;;;5029498;28;20454;-52